DIRECCIÓN GENERAL DE AERONÁUTICA CIVIL
DIRECCIÓN METEOROLÓGICA DE CHILE
INFORMACIÓN METAR Y TAF

FIR SANTIAGO

Estación: SCSE
METAR SCSE 260100Z AUTO VRB01KT //// // ////// 14/12 Q1015=

TAF SCSE 252230Z 2600/2624 25005KT 9999 BKN010 TX15/2619Z TN11/2610Z BECMG 2601/2603 VRB02KT BECMG 2606/2608 OVC010 TEMPO 2608/2612 3000 BR OVC008 BECMG 2614/2616 9999 BKN012 BECMG 2616/2618 30010KT=

Estación: SCER
NIL=

NIL=

Estación: SCRD
METAR SCRD 252300Z 31006KT 0400 FG VV000 13/12 Q1014=

TAF SCRD 251041Z 2512/2524 35003KT CAVOK TX31/2518Z TN18/2512Z TEMPO 2512/2513 0100 FG VV001 BECMG 2514/2516 18015KT=

Estación: SCVM
METAR SCVM 260100Z 32007KT 7000 SCT008 15/13 Q1015=

TAF SCVM 252230Z 2600/2624 30010KT 4000 BR BKN007 TX15/2619Z TN10/ 2610Z BECMG 2600/2602 VRB02KT 3000 BR BKN005 BECMG 2608/2610 2000 BR OVC005 TEMPO 2608/2612 0200 FG OVC001 BECMG 2614/2616 9999 BKN010 BECMG 2616/2618 29010KT=

Estación: SCTB
METAR SCTB 252300Z 23004KT CAVOK 26/11 Q1013=

TAF SCTB 251041Z 2512/2524 VRB02KT CAVOK TX31/2518Z TN14/2512Z TEMPO 2515/2518 7000 NSC BECMG 2516/2518 22007KT=

Estación: SCEL
METAR SCEL 260100Z 13009KT CAVOK 22/05 Q1012 NOSIG=

TAF SCEL 252230Z 2600/2624 19012KT CAVOK TX24/2619Z TN10/2610Z BECMG 2601/2603 15005KT BECMG 2607/2609 VRB02KT 7000 NSC TEMPO 2608/2612 0500 BCFG SCT005 BECMG 2614/2616 19012KT 9999=

Estación: SCSN
METAR SCSN 260000Z 33008KT 300V360 9999 OVC016 14/13 Q1014=

TAF SCSN 251040Z 2512/2524 VRB02KT CAVOK TX20/2518Z TN09/2512Z TEMPO 2512/2514 4500 BR NSC BECMG 2515/2517 27008KT=

Estación: SCRG
METAR SCRG 241800Z 17014KT CAVOK 28/13 Q1015=

TAF SCRG 241050Z 2412/2424 VRB02KT CAVOK TX30/2419Z TN18/2412Z BECMG 2414/2416 17013KT=

Estación: SCIC
METAR SCIC 260100Z AUTO 13003KT 9999 NCD 18/10 Q1011=

TAF SCIC 251042Z 2512/2524 17005KT CAVOK TX31/2518Z TN14/2512Z BECMG 2514/2516 21010KT=

Estación: SCCH
METAR SCCH 252300Z 20002KT CAVOK 26/09 Q1011=

TAF SCCH 251042Z 2512/2524 21005KT CAVOK TX30/2518Z TN14/2512Z=

Estación: SCIE
METAR SCIE 260100Z 01002KT CAVOK 15/13 Q1013=

TAF SCIE 252230Z 2600/2624 23010KT CAVOK TX20/2619Z TN10/2610Z BECMG 2600/2602 18005KT BECMG 2606/2608 09005KT BECMG 2608/2610 VRB02KT BECMG 2614/2616 23010KT=

Estación: SCGE
METAR SCGE 252100Z 18003KT CAVOK 30/03 Q1012=

TAF SCGE 251043Z 2512/2524 19008KT CAVOK TX31/2518Z TN14/2512Z=


Volver